JST256 YBCG-YSSY
Flight info
| Callsign | JST256 |
|---|---|
| Flight time | 1h 20m |
| Altitude | 34000 |
| Route | GOMOL Q16 APAGI H91 IGDAM H652 BOREE |
| Aircraft | A20N/M-SDE2E3FGHIRWXY/LB1 |
Departure
| Time | 2026-05-04 09:26 |
|---|---|
| Airport | Gold Coast Airport (YBCG) |
Arrival
| Time | 2026-05-04 10:46 |
|---|---|
| Airport | Sydney Kingsford Smith International Airport (YSSY) |
| Time | Latitude | Longitude | Altitude | Speed | Heading |
|---|---|---|---|---|---|
| 2026-05-04 09:18 | -28.16467 | 153.51091 | 24 ft | 0 kts | 150° |
| 2026-05-04 09:19 | -28.16456 | 153.51085 | 24 ft | 2 kts | 150° |
| 2026-05-04 09:19 | -28.16443 | 153.51076 | 24 ft | 2 kts | 150° |
| 2026-05-04 09:19 | -28.16430 | 153.51068 | 24 ft | 2 kts | 150° |
| 2026-05-04 09:19 | -28.16417 | 153.51059 | 24 ft | 2 kts | 150° |
| 2026-05-04 09:20 | -28.16407 | 153.51053 | 24 ft | 1 kts | 149° |
| 2026-05-04 09:20 | -28.16400 | 153.51051 | 24 ft | 0 kts | 213° |
| 2026-05-04 09:20 | -28.16397 | 153.51056 | 24 ft | 1 kts | 250° |
| 2026-05-04 09:20 | -28.16395 | 153.51062 | 24 ft | 0 kts | 240° |
| 2026-05-04 09:21 | -28.16395 | 153.51060 | 24 ft | 0 kts | 240° |
| 2026-05-04 09:22 | -28.16396 | 153.51059 | 24 ft | 1 kts | 240° |
| 2026-05-04 09:22 | -28.16407 | 153.51038 | 23 ft | 5 kts | 240° |
| 2026-05-04 09:22 | -28.16435 | 153.50980 | 23 ft | 10 kts | 240° |
| 2026-05-04 09:22 | -28.16479 | 153.50894 | 23 ft | 14 kts | 240° |
| 2026-05-04 09:23 | -28.16456 | 153.50798 | 24 ft | 15 kts | 333° |
| 2026-05-04 09:23 | -28.16354 | 153.50732 | 25 ft | 17 kts | 329° |
| 2026-05-04 09:23 | -28.16239 | 153.50659 | 25 ft | 20 kts | 330° |
| 2026-05-04 09:23 | -28.16108 | 153.50577 | 25 ft | 22 kts | 330° |
| 2026-05-04 09:25 | -28.15848 | 153.50195 | 26 ft | 52 kts | 150° |
| 2026-05-04 09:25 | -28.16388 | 153.50539 | 27 ft | 122 kts | 150° |
| 2026-05-04 09:26 | -28.17280 | 153.51106 | 118 ft | 166 kts | 150° |
| 2026-05-04 09:26 | -28.18320 | 153.51765 | 629 ft | 176 kts | 149° |
| 2026-05-04 09:26 | -28.19387 | 153.52440 | 1338 ft | 177 kts | 147° |
| 2026-05-04 09:26 | -28.20472 | 153.53102 | 1898 ft | 187 kts | 149° |
| 2026-05-04 09:27 | -28.21772 | 153.53673 | 2269 ft | 213 kts | 161° |
| 2026-05-04 09:27 | -28.23297 | 153.54115 | 2700 ft | 236 kts | 162° |
| 2026-05-04 09:27 | -28.24953 | 153.54578 | 3244 ft | 255 kts | 170° |
| 2026-05-04 09:27 | -28.26750 | 153.54353 | 3769 ft | 276 kts | 203° |
| 2026-05-04 09:28 | -28.28243 | 153.52982 | 4580 ft | 282 kts | 232° |
| 2026-05-04 09:28 | -28.29306 | 153.51131 | 5568 ft | 281 kts | 239° |
| 2026-05-04 09:28 | -28.30261 | 153.49242 | 6481 ft | 282 kts | 239° |
| 2026-05-04 09:28 | -28.31269 | 153.47327 | 7351 ft | 285 kts | 238° |
| 2026-05-04 09:29 | -28.32330 | 153.45422 | 8191 ft | 288 kts | 237° |
| 2026-05-04 09:29 | -28.33432 | 153.43518 | 9035 ft | 291 kts | 237° |
| 2026-05-04 09:29 | -28.34546 | 153.41641 | 9858 ft | 292 kts | 237° |
| 2026-05-04 09:29 | -28.35696 | 153.39728 | 10616 ft | 296 kts | 237° |
| 2026-05-04 09:30 | -28.36896 | 153.37746 | 11043 ft | 313 kts | 237° |
| 2026-05-04 09:30 | -28.38146 | 153.35687 | 11454 ft | 327 kts | 237° |
| 2026-05-04 09:30 | -28.39452 | 153.33546 | 12124 ft | 332 kts | 238° |
| 2026-05-04 09:30 | -28.40773 | 153.31387 | 12852 ft | 334 kts | 238° |
| 2026-05-04 09:31 | -28.42097 | 153.29221 | 13536 ft | 337 kts | 238° |
| 2026-05-04 09:31 | -28.43428 | 153.27043 | 14194 ft | 340 kts | 239° |
| 2026-05-04 09:31 | -28.44782 | 153.24824 | 14870 ft | 342 kts | 239° |
| 2026-05-04 09:31 | -28.46142 | 153.22592 | 15536 ft | 344 kts | 239° |
| 2026-05-04 09:32 | -28.47491 | 153.20381 | 16192 ft | 346 kts | 239° |
| 2026-05-04 09:32 | -28.48867 | 153.18124 | 16826 ft | 348 kts | 240° |
| 2026-05-04 09:34 | -28.58663 | 153.02006 | 21021 ft | 361 kts | 241° |
| 2026-05-04 09:34 | -28.60096 | 152.99644 | 21585 ft | 364 kts | 241° |
| 2026-05-04 09:34 | -28.61545 | 152.97253 | 22021 ft | 369 kts | 241° |
| 2026-05-04 09:34 | -28.62991 | 152.94864 | 22518 ft | 373 kts | 241° |
| 2026-05-04 09:35 | -28.64469 | 152.92424 | 23056 ft | 375 kts | 242° |
| 2026-05-04 09:35 | -28.65954 | 152.89975 | 23624 ft | 376 kts | 242° |
| 2026-05-04 09:35 | -28.67422 | 152.87550 | 24162 ft | 377 kts | 242° |
| 2026-05-04 09:35 | -28.68917 | 152.85078 | 24706 ft | 379 kts | 242° |
| 2026-05-04 09:37 | -28.79501 | 152.67526 | 27998 ft | 390 kts | 244° |
| 2026-05-04 09:37 | -28.81022 | 152.64998 | 28412 ft | 391 kts | 243° |
| 2026-05-04 09:38 | -28.82601 | 152.62454 | 28812 ft | 396 kts | 240° |
| 2026-05-04 09:38 | -28.84459 | 152.60075 | 29141 ft | 406 kts | 233° |
| 2026-05-04 09:38 | -28.86598 | 152.57960 | 29470 ft | 417 kts | 226° |
| 2026-05-04 09:38 | -28.89048 | 152.56114 | 29878 ft | 426 kts | 219° |
| 2026-05-04 09:39 | -28.91662 | 152.54507 | 30384 ft | 425 kts | 218° |
| 2026-05-04 09:39 | -28.94277 | 152.52959 | 30927 ft | 420 kts | 218° |
| 2026-05-04 09:39 | -28.96829 | 152.51457 | 31439 ft | 415 kts | 218° |
| 2026-05-04 09:39 | -28.99389 | 152.49945 | 31888 ft | 412 kts | 219° |
| 2026-05-04 09:40 | -29.01929 | 152.48438 | 32307 ft | 409 kts | 219° |
| 2026-05-04 09:40 | -29.04413 | 152.46959 | 32710 ft | 406 kts | 219° |
| 2026-05-04 09:40 | -29.06931 | 152.45459 | 33083 ft | 404 kts | 219° |
| 2026-05-04 09:40 | -29.09427 | 152.43971 | 33398 ft | 403 kts | 219° |
| 2026-05-04 09:41 | -29.11888 | 152.42496 | 33624 ft | 404 kts | 219° |
| 2026-05-04 09:42 | -29.29530 | 152.31935 | 34156 ft | 410 kts | 220° |
| 2026-05-04 09:43 | -29.34622 | 152.28882 | 34162 ft | 410 kts | 220° |
| 2026-05-04 09:43 | -29.39663 | 152.25854 | 34171 ft | 411 kts | 220° |
| 2026-05-04 09:44 | -29.44729 | 152.22807 | 34180 ft | 411 kts | 220° |
| 2026-05-04 09:46 | -29.65011 | 152.10597 | 34185 ft | 413 kts | 219° |
| 2026-05-04 09:46 | -29.70418 | 152.07921 | 34186 ft | 425 kts | 212° |
| 2026-05-04 09:47 | -29.76164 | 152.05911 | 34185 ft | 437 kts | 206° |
| 2026-05-04 09:49 | -29.99999 | 151.99689 | 34187 ft | 438 kts | 205° |
| 2026-05-04 09:51 | -30.20874 | 151.94209 | 34182 ft | 439 kts | 205° |
| 2026-05-04 09:51 | -30.26805 | 151.92648 | 34184 ft | 439 kts | 205° |
| 2026-05-04 09:52 | -30.32713 | 151.90855 | 34174 ft | 433 kts | 210° |
| 2026-05-04 09:52 | -30.38255 | 151.88467 | 34174 ft | 425 kts | 214° |
| 2026-05-04 09:53 | -30.43727 | 151.85908 | 34166 ft | 425 kts | 214° |
| 2026-05-04 09:53 | -30.49220 | 151.83347 | 34167 ft | 425 kts | 214° |
| 2026-05-04 09:54 | -30.54675 | 151.80800 | 34159 ft | 425 kts | 214° |
| 2026-05-04 09:54 | -30.60176 | 151.78229 | 34157 ft | 424 kts | 214° |
| 2026-05-04 09:55 | -30.65631 | 151.75684 | 34153 ft | 425 kts | 215° |
| 2026-05-04 09:55 | -30.71139 | 151.73105 | 34151 ft | 425 kts | 214° |
| 2026-05-04 09:56 | -30.76598 | 151.70549 | 34149 ft | 425 kts | 214° |
| 2026-05-04 09:56 | -30.82073 | 151.67979 | 34138 ft | 426 kts | 215° |
| 2026-05-04 09:57 | -30.87586 | 151.65392 | 34143 ft | 425 kts | 215° |
| 2026-05-04 09:57 | -30.93038 | 151.62830 | 34152 ft | 424 kts | 214° |
| 2026-05-04 09:58 | -30.98527 | 151.60245 | 34154 ft | 424 kts | 215° |
| 2026-05-04 09:58 | -31.04024 | 151.57654 | 34144 ft | 425 kts | 215° |
| 2026-05-04 10:00 | -31.25946 | 151.47290 | 34129 ft | 425 kts | 215° |
| 2026-05-04 10:04 | -31.64753 | 151.29593 | 34122 ft | 427 kts | 215° |
| 2026-05-04 10:04 | -31.70334 | 151.27087 | 34117 ft | 428 kts | 214° |
| 2026-05-04 10:04 | -31.73253 | 151.26059 | 34110 ft | 445 kts | 205° |
| 2026-05-04 10:05 | -31.76322 | 151.25488 | 34114 ft | 454 kts | 201° |
| 2026-05-04 10:05 | -31.79482 | 151.25049 | 33982 ft | 456 kts | 200° |
| 2026-05-04 10:05 | -31.82649 | 151.24632 | 33719 ft | 455 kts | 199° |
| 2026-05-04 10:05 | -31.85757 | 151.24223 | 33466 ft | 454 kts | 200° |
| 2026-05-04 10:06 | -31.88895 | 151.23801 | 33219 ft | 451 kts | 200° |
| 2026-05-04 10:06 | -31.92023 | 151.23369 | 32982 ft | 450 kts | 200° |
| 2026-05-04 10:06 | -31.95145 | 151.22931 | 32752 ft | 449 kts | 199° |
| 2026-05-04 10:08 | -32.13866 | 151.20250 | 29651 ft | 458 kts | 197° |
| 2026-05-04 10:08 | -32.17042 | 151.19795 | 29005 ft | 459 kts | 196° |
| 2026-05-04 10:08 | -32.20245 | 151.19339 | 28346 ft | 460 kts | 195° |
| 2026-05-04 10:08 | -32.23402 | 151.18887 | 27708 ft | 460 kts | 195° |
| 2026-05-04 10:09 | -32.26602 | 151.18434 | 27068 ft | 460 kts | 195° |
| 2026-05-04 10:09 | -32.29745 | 151.17984 | 26433 ft | 459 kts | 194° |
| 2026-05-04 10:09 | -32.32920 | 151.17531 | 25780 ft | 458 kts | 194° |
| 2026-05-04 10:09 | -32.36084 | 151.17078 | 25136 ft | 456 kts | 193° |
| 2026-05-04 10:10 | -32.39193 | 151.16634 | 24497 ft | 454 kts | 193° |
| 2026-05-04 10:10 | -32.42333 | 151.16183 | 23847 ft | 453 kts | 192° |
| 2026-05-04 10:10 | -32.45463 | 151.15735 | 23204 ft | 450 kts | 192° |
| 2026-05-04 10:10 | -32.48524 | 151.15294 | 22672 ft | 446 kts | 192° |
| 2026-05-04 10:11 | -32.51598 | 151.14859 | 22149 ft | 441 kts | 192° |
| 2026-05-04 10:11 | -32.54642 | 151.14421 | 21612 ft | 438 kts | 192° |
| 2026-05-04 10:11 | -32.57665 | 151.13988 | 21077 ft | 434 kts | 191° |
| 2026-05-04 10:11 | -32.60614 | 151.13564 | 20578 ft | 430 kts | 191° |
| 2026-05-04 10:12 | -32.63585 | 151.13136 | 20083 ft | 426 kts | 191° |
| 2026-05-04 10:12 | -32.66519 | 151.12712 | 19607 ft | 421 kts | 191° |
| 2026-05-04 10:12 | -32.69387 | 151.12299 | 19104 ft | 418 kts | 191° |
| 2026-05-04 10:12 | -32.72274 | 151.11881 | 18611 ft | 415 kts | 191° |
| 2026-05-04 10:13 | -32.75141 | 151.11465 | 18118 ft | 413 kts | 190° |
| 2026-05-04 10:13 | -32.77952 | 151.11057 | 17617 ft | 410 kts | 190° |
| 2026-05-04 10:13 | -32.80783 | 151.10648 | 17153 ft | 407 kts | 191° |
| 2026-05-04 10:13 | -32.83588 | 151.10245 | 16704 ft | 403 kts | 190° |
| 2026-05-04 10:14 | -32.86367 | 151.09843 | 16252 ft | 399 kts | 191° |
| 2026-05-04 10:14 | -32.89082 | 151.09450 | 15820 ft | 395 kts | 191° |
| 2026-05-04 10:16 | -33.07571 | 151.06763 | 12778 ft | 370 kts | 192° |
| 2026-05-04 10:16 | -33.10138 | 151.06384 | 12325 ft | 368 kts | 191° |
| 2026-05-04 10:16 | -33.12652 | 151.06015 | 11894 ft | 364 kts | 191° |
| 2026-05-04 10:16 | -33.15168 | 151.05647 | 11471 ft | 361 kts | 191° |
| 2026-05-04 10:17 | -33.17645 | 151.05284 | 11040 ft | 358 kts | 191° |
| 2026-05-04 10:17 | -33.20114 | 151.04923 | 10613 ft | 354 kts | 191° |
| 2026-05-04 10:19 | -33.35769 | 151.06644 | 9146 ft | 305 kts | 174° |
| 2026-05-04 10:19 | -33.37875 | 151.07040 | 8777 ft | 305 kts | 174° |
| 2026-05-04 10:19 | -33.39945 | 151.07431 | 8405 ft | 304 kts | 174° |
| 2026-05-04 10:19 | -33.42036 | 151.07822 | 8034 ft | 302 kts | 174° |
| 2026-05-04 10:20 | -33.44124 | 151.08191 | 7663 ft | 301 kts | 174° |
| 2026-05-04 10:20 | -33.46204 | 151.08553 | 7294 ft | 301 kts | 173° |
| 2026-05-04 10:20 | -33.48245 | 151.08955 | 6928 ft | 300 kts | 172° |
| 2026-05-04 10:20 | -33.50304 | 151.09381 | 6559 ft | 299 kts | 172° |
| 2026-05-04 10:21 | -33.52351 | 151.09805 | 6268 ft | 295 kts | 172° |
| 2026-05-04 10:21 | -33.54361 | 151.10219 | 6096 ft | 296 kts | 172° |
| 2026-05-04 10:21 | -33.56401 | 151.10634 | 6019 ft | 295 kts | 172° |
| 2026-05-04 10:21 | -33.58440 | 151.11046 | 6013 ft | 297 kts | 172° |
| 2026-05-04 10:22 | -33.62502 | 151.11865 | 6013 ft | 297 kts | 172° |
| 2026-05-04 10:22 | -33.64550 | 151.12271 | 6010 ft | 297 kts | 173° |
| 2026-05-04 10:22 | -33.66598 | 151.12672 | 6009 ft | 296 kts | 173° |
| 2026-05-04 10:23 | -33.68617 | 151.13078 | 6004 ft | 297 kts | 170° |
| 2026-05-04 10:23 | -33.70555 | 151.13956 | 5994 ft | 298 kts | 147° |
| 2026-05-04 10:25 | -33.80677 | 151.26419 | 5989 ft | 299 kts | 133° |
| 2026-05-04 10:25 | -33.82175 | 151.28166 | 5998 ft | 299 kts | 142° |
| 2026-05-04 10:25 | -33.83975 | 151.29362 | 6001 ft | 299 kts | 162° |
| 2026-05-04 10:25 | -33.86003 | 151.29990 | 6003 ft | 298 kts | 170° |
| 2026-05-04 10:26 | -33.88019 | 151.30464 | 5984 ft | 298 kts | 171° |
| 2026-05-04 10:26 | -33.90062 | 151.30939 | 5990 ft | 298 kts | 171° |
| 2026-05-04 10:26 | -33.92102 | 151.31438 | 5989 ft | 297 kts | 170° |
| 2026-05-04 10:26 | -33.94121 | 151.31952 | 5996 ft | 289 kts | 169° |
| 2026-05-04 10:27 | -33.96021 | 151.32449 | 5991 ft | 274 kts | 169° |
| 2026-05-04 10:27 | -33.97847 | 151.32930 | 5994 ft | 262 kts | 170° |
| 2026-05-04 10:27 | -33.99645 | 151.33400 | 5999 ft | 264 kts | 170° |
| 2026-05-04 10:27 | -34.01450 | 151.33872 | 6000 ft | 264 kts | 170° |
| 2026-05-04 10:28 | -34.03228 | 151.34335 | 5966 ft | 263 kts | 170° |
| 2026-05-04 10:28 | -34.05022 | 151.34805 | 5791 ft | 264 kts | 170° |
| 2026-05-04 10:28 | -34.06834 | 151.35280 | 5396 ft | 267 kts | 170° |
| 2026-05-04 10:28 | -34.08643 | 151.35753 | 5014 ft | 270 kts | 169° |
| 2026-05-04 10:29 | -34.10487 | 151.36235 | 4714 ft | 269 kts | 169° |
| 2026-05-04 10:29 | -34.12322 | 151.36717 | 4416 ft | 266 kts | 169° |
| 2026-05-04 10:29 | -34.14100 | 151.37186 | 4048 ft | 260 kts | 169° |
| 2026-05-04 10:29 | -34.15850 | 151.37642 | 3651 ft | 253 kts | 169° |
| 2026-05-04 10:30 | -34.17535 | 151.38074 | 3261 ft | 247 kts | 169° |
| 2026-05-04 10:30 | -34.19206 | 151.38501 | 2868 ft | 243 kts | 169° |
| 2026-05-04 10:30 | -34.20859 | 151.38924 | 2546 ft | 242 kts | 168° |
| 2026-05-04 10:30 | -34.22512 | 151.39346 | 2274 ft | 241 kts | 168° |
| 2026-05-04 10:31 | -34.24131 | 151.39755 | 2035 ft | 237 kts | 168° |
| 2026-05-04 10:31 | -34.25724 | 151.40157 | 1995 ft | 230 kts | 168° |
| 2026-05-04 10:32 | -34.31845 | 151.34431 | 1985 ft | 218 kts | 210° |
| 2026-05-04 10:33 | -34.33334 | 151.34047 | 1990 ft | 222 kts | 173° |
| 2026-05-04 10:33 | -34.34759 | 151.34720 | 1992 ft | 220 kts | 135° |
| 2026-05-04 10:33 | -34.35599 | 151.36169 | 1992 ft | 210 kts | 98° |
| 2026-05-04 10:33 | -34.35597 | 151.37854 | 1996 ft | 196 kts | 62° |
| 2026-05-04 10:34 | -34.34803 | 151.39093 | 1998 ft | 183 kts | 25° |
| 2026-05-04 10:34 | -34.33607 | 151.39523 | 2016 ft | 179 kts | 8° |
| 2026-05-04 10:34 | -34.32396 | 151.39842 | 2005 ft | 180 kts | 11° |
| 2026-05-04 10:34 | -34.31173 | 151.40222 | 1998 ft | 180 kts | 12° |
| 2026-05-04 10:35 | -34.29955 | 151.40610 | 1997 ft | 180 kts | 12° |
| 2026-05-04 10:35 | -34.28755 | 151.40994 | 1993 ft | 180 kts | 12° |
| 2026-05-04 10:35 | -34.27530 | 151.41386 | 1994 ft | 181 kts | 12° |
| 2026-05-04 10:35 | -34.26302 | 151.41786 | 1993 ft | 182 kts | 12° |
| 2026-05-04 10:36 | -34.25078 | 151.42189 | 1990 ft | 181 kts | 12° |
| 2026-05-04 10:36 | -34.23874 | 151.42580 | 1993 ft | 180 kts | 12° |
| 2026-05-04 10:36 | -34.22655 | 151.42972 | 1992 ft | 180 kts | 12° |
| 2026-05-04 10:36 | -34.21431 | 151.43364 | 1991 ft | 181 kts | 12° |
| 2026-05-04 10:37 | -34.20221 | 151.43751 | 1993 ft | 181 kts | 12° |
| 2026-05-04 10:37 | -34.18988 | 151.44092 | 1988 ft | 180 kts | 0° |
| 2026-05-04 10:37 | -34.17807 | 151.43680 | 1984 ft | 181 kts | 323° |
| 2026-05-04 10:37 | -34.17120 | 151.42383 | 1989 ft | 193 kts | 286° |
| 2026-05-04 10:39 | -34.18543 | 151.32428 | 1997 ft | 203 kts | 265° |
| 2026-05-04 10:39 | -34.18829 | 151.30753 | 1996 ft | 203 kts | 265° |
| 2026-05-04 10:39 | -34.19094 | 151.29100 | 1997 ft | 200 kts | 272° |
| 2026-05-04 10:40 | -34.18841 | 151.27539 | 1984 ft | 185 kts | 308° |
| 2026-05-04 10:40 | -34.18008 | 151.26370 | 2008 ft | 182 kts | 320° |
| 2026-05-04 10:40 | -34.17073 | 151.25372 | 2000 ft | 180 kts | 327° |
| 2026-05-04 10:40 | -34.15995 | 151.24615 | 1999 ft | 178 kts | 339° |
| 2026-05-04 10:41 | -34.14840 | 151.24107 | 2002 ft | 169 kts | 345° |
| 2026-05-04 10:41 | -34.13752 | 151.23750 | 2051 ft | 161 kts | 347° |
| 2026-05-04 10:41 | -34.12665 | 151.23438 | 2010 ft | 159 kts | 348° |
| 2026-05-04 10:41 | -34.11579 | 151.23141 | 2003 ft | 159 kts | 348° |
| 2026-05-04 10:42 | -34.10499 | 151.22859 | 1990 ft | 152 kts | 348° |
| 2026-05-04 10:42 | -34.09527 | 151.22609 | 1935 ft | 140 kts | 349° |
| 2026-05-04 10:42 | -34.08590 | 151.22366 | 1769 ft | 134 kts | 349° |
| 2026-05-04 10:42 | -34.07674 | 151.22130 | 1618 ft | 134 kts | 349° |
| 2026-05-04 10:43 | -34.06770 | 151.21896 | 1474 ft | 134 kts | 349° |
| 2026-05-04 10:44 | -34.00568 | 151.20277 | 709 ft | 129 kts | 349° |
| 2026-05-04 10:45 | -33.99690 | 151.20058 | 528 ft | 128 kts | 351° |
| 2026-05-04 10:45 | -33.98826 | 151.19842 | 378 ft | 128 kts | 349° |
| 2026-05-04 10:45 | -33.97953 | 151.19603 | 198 ft | 128 kts | 349° |
| 2026-05-04 10:45 | -33.97072 | 151.19377 | 45 ft | 129 kts | 350° |
| 2026-05-04 10:46 | -33.96291 | 151.19180 | 28 ft | 93 kts | 347° |
| 2026-05-04 10:46 | -33.95894 | 151.19051 | 28 ft | 31 kts | 329° |
| 2026-05-04 10:46 | -33.95770 | 151.18927 | 28 ft | 11 kts | 317° |
| 2026-05-04 10:46 | -33.95758 | 151.18913 | 28 ft | 0 kts | 317° |
| 2026-05-04 10:47 | -33.95754 | 151.18909 | 28 ft | 1 kts | 317° |
| 2026-05-04 10:47 | -33.95744 | 151.18898 | 28 ft | 2 kts | 317° |
| 2026-05-04 10:47 | -33.95725 | 151.18878 | 28 ft | 4 kts | 317° |
| 2026-05-04 10:47 | -33.95696 | 151.18851 | 28 ft | 6 kts | 325° |
| 2026-05-04 10:49 | -33.95147 | 151.18253 | 28 ft | 19 kts | 258° |
| 2026-05-04 10:49 | -33.95166 | 151.18146 | 28 ft | 6 kts | 258° |
| 2026-05-04 10:50 | -33.95167 | 151.18143 | 28 ft | 0 kts | 258° |
| 2026-05-04 10:51 | -33.94974 | 151.17912 | 28 ft | 14 kts | 348° |
| 2026-05-04 10:52 | -33.94877 | 151.17888 | 28 ft | 14 kts | 347° |
| 2026-05-04 10:52 | -33.94777 | 151.17860 | 28 ft | 14 kts | 347° |
| 2026-05-04 10:52 | -33.94687 | 151.17837 | 28 ft | 7 kts | 349° |
| 2026-05-04 10:54 | -33.94162 | 151.17683 | 28 ft | 0 kts | 346° |
| 2026-05-04 10:56 | -33.93945 | 151.17622 | 28 ft | 0 kts | 347° |
| 2026-05-04 10:56 | -33.93922 | 151.17616 | 28 ft | 10 kts | 347° |
| 2026-05-04 10:56 | -33.93844 | 151.17596 | 28 ft | 11 kts | 348° |
| 2026-05-04 10:57 | -33.93751 | 151.17574 | 28 ft | 14 kts | 349° |
| 2026-05-04 10:57 | -33.93657 | 151.17584 | 28 ft | 13 kts | 46° |
| 2026-05-04 10:57 | -33.93646 | 151.17694 | 28 ft | 13 kts | 98° |
| 2026-05-04 10:57 | -33.93658 | 151.17792 | 28 ft | 8 kts | 77° |
| 2026-05-04 10:58 | -33.93608 | 151.17824 | 28 ft | 8 kts | 11° |
| 2026-05-04 10:58 | -33.93572 | 151.17812 | 28 ft | 5 kts | 289° |
| 2026-05-04 10:58 | -33.93567 | 151.17784 | 28 ft | 0 kts | 278° |
| 2026-05-04 10:58 | -33.93566 | 151.17772 | 28 ft | 2 kts | 279° |
| 2026-05-04 10:59 | -33.93565 | 151.17764 | 28 ft | 1 kts | 279° |
| 2026-05-04 10:59 | -33.93565 | 151.17763 | 28 ft | 0 kts | 279° |